Time;durP1;ratioP1;P1;durP2;ratioP2;P2;SDS_P1;SDS_P2;PMS_P1;PMS_P2;Temp;Humidity;BMP_temperature;BMP_pressure;BME280_temperature;BME280_humidity;BME280_pressure;Samples;Min_cycle;Max_cycle;Signal;HPM_P1;HPM_P2
2024/03/06 00:01:31;;;;;;;11.77;8.60;;;10.40;99.90;;;;;;4943130;28;20274;-79
2024/03/06 00:03:57;;;;;;;9.30;7.13;;;10.50;99.90;;;;;;4955782;28;20454;-80
2024/03/06 00:06:24;;;;;;;12.20;8.30;;;10.40;99.90;;;;;;4923747;28;20441;-80
2024/03/06 00:08:51;;;;;;;9.50;7.87;;;10.40;99.90;;;;;;4920086;29;20472;-79
2024/03/06 00:11:17;;;;;;;10.10;8.00;;;10.40;99.90;;;;;;4936088;28;20521;-79
2024/03/06 00:13:47;;;;;;;11.63;8.33;;;10.40;99.90;;;;;;4940136;28;20446;-79
2024/03/06 00:16:14;;;;;;;14.10;8.17;;;10.40;99.90;;;;;;4955741;28;20430;-79
2024/03/06 00:18:42;;;;;;;10.27;8.30;;;10.40;99.90;;;;;;4957859;28;20441;-79
2024/03/06 00:21:09;;;;;;;9.23;8.23;;;10.40;99.90;;;;;;4923208;28;21079;-79
2024/03/06 00:23:37;;;;;;;9.30;8.13;;;10.40;99.90;;;;;;4943855;28;20920;-79
2024/03/06 00:26:03;;;;;;;10.70;8.00;;;10.40;99.90;;;;;;4942356;28;20435;-79
2024/03/06 00:28:29;;;;;;;10.43;8.33;;;10.30;99.90;;;;;;4960632;28;20447;-79
2024/03/06 00:30:56;;;;;;;9.97;7.53;;;10.40;99.90;;;;;;4923349;28;20440;-79
2024/03/06 00:33:23;;;;;;;9.67;7.60;;;10.30;99.90;;;;;;4956888;28;20986;-78
2024/03/06 00:35:53;;;;;;;10.37;7.83;;;10.30;99.90;;;;;;4933286;29;20510;-80
2024/03/06 00:38:19;;;;;;;9.70;7.63;;;10.30;99.90;;;;;;4926915;29;20439;-79
2024/03/06 00:40:47;;;;;;;9.67;8.50;;;10.30;99.90;;;;;;4944002;28;20528;-79
2024/03/06 00:43:13;;;;;;;9.67;8.20;;;10.20;99.90;;;;;;4964036;28;20274;-80
2024/03/06 00:45:39;;;;;;;9.80;8.30;;;10.40;99.90;;;;;;4941481;29;20522;-80
2024/03/06 00:48:05;;;;;;;9.27;7.50;;;10.30;99.90;;;;;;4957311;28;20811;-79
2024/03/06 00:50:35;;;;;;;10.70;8.27;;;10.30;99.90;;;;;;4922357;28;20435;-79
2024/03/06 00:53:01;;;;;;;10.97;8.23;;;10.30;99.90;;;;;;4930070;28;20485;-79
2024/03/06 00:55:29;;;;;;;9.13;7.57;;;10.40;99.90;;;;;;4961034;28;20880;-78
2024/03/06 00:58:00;;;;;;;10.10;7.90;;;10.30;99.90;;;;;;4946612;28;20440;-79
2024/03/06 01:00:30;;;;;;;9.70;7.30;;;10.30;99.90;;;;;;4960619;28;20781;-78
2024/03/06 01:02:56;;;;;;;8.53;7.73;;;10.20;99.90;;;;;;4957364;28;20504;-80
2024/03/06 01:05:22;;;;;;;12.27;7.80;;;10.20;99.90;;;;;;4942729;28;20459;-79
2024/03/06 01:07:50;;;;;;;9.57;8.20;;;10.20;99.90;;;;;;4941832;28;20470;-79
2024/03/06 01:10:16;;;;;;;9.83;7.90;;;10.20;99.90;;;;;;4939678;28;20438;-79
2024/03/06 01:12:45;;;;;;;10.77;7.90;;;10.20;99.90;;;;;;4912154;28;20445;-79
2024/03/06 01:15:11;;;;;;;9.33;8.00;;;10.20;99.90;;;;;;4944833;28;21080;-80
2024/03/06 01:17:39;;;;;;;11.90;8.50;;;10.20;99.90;;;;;;4958109;28;20487;-80
2024/03/06 01:20:08;;;;;;;8.87;7.93;;;10.20;99.90;;;;;;4947038;28;20470;-78
2024/03/06 01:22:41;;;;;;;10.43;7.33;;;10.20;99.90;;;;;;4933170;29;20439;-78
2024/03/06 01:25:07;;;;;;;8.70;7.80;;;10.10;99.90;;;;;;4914288;28;20443;-78
2024/03/06 01:27:38;;;;;;;11.17;7.80;;;10.10;99.90;;;;;;4937346;29;20984;-79
2024/03/06 01:30:09;;;;;;;10.03;8.20;;;10.10;99.90;;;;;;4938622;28;20490;-78
2024/03/06 01:32:35;;;;;;;10.57;7.93;;;10.10;99.90;;;;;;4943486;28;21307;-77
2024/03/06 01:35:01;;;;;;;10.67;7.90;;;10.10;99.90;;;;;;4925467;28;20510;-78
2024/03/06 01:37:27;;;;;;;9.83;8.50;;;10.10;99.90;;;;;;4923486;28;20447;-78
2024/03/06 01:39:52;;;;;;;10.73;7.57;;;10.40;99.90;;;;;;4943738;28;20509;-79
2024/03/06 01:42:20;;;;;;;13.00;8.53;;;10.10;99.90;;;;;;4923777;28;20786;-78
2024/03/06 01:44:46;;;;;;;9.83;7.73;;;10.10;99.90;;;;;;4937926;28;20263;-78
2024/03/06 01:47:20;;;;;;;10.63;8.60;;;10.10;99.90;;;;;;4924910;28;20479;-78
2024/03/06 01:49:46;;;;;;;11.27;8.90;;;10.10;99.90;;;;;;4942438;28;20454;-78
2024/03/06 01:52:14;;;;;;;9.90;7.97;;;10.10;99.90;;;;;;4947039;28;20422;-78
2024/03/06 01:54:44;;;;;;;10.70;8.03;;;10.00;99.90;;;;;;4924515;28;20987;-78
2024/03/06 01:57:13;;;;;;;11.70;8.23;;;10.10;99.90;;;;;;4910185;28;20482;-78
2024/03/06 01:59:40;;;;;;;11.47;8.90;;;10.10;99.90;;;;;;4941795;29;20534;-79
2024/03/06 02:02:11;;;;;;;11.40;8.97;;;10.00;99.90;;;;;;4924476;28;20448;-79
2024/03/06 02:04:37;;;;;;;10.17;7.70;;;10.00;99.90;;;;;;4939347;28;20436;-79
2024/03/06 02:07:08;;;;;;;9.97;8.60;;;10.00;99.90;;;;;;4959348;28;20494;-79
2024/03/06 02:09:39;;;;;;;10.37;9.20;;;10.00;99.90;;;;;;4941096;28;20435;-79
2024/03/06 02:12:08;;;;;;;9.73;8.63;;;10.00;99.90;;;;;;4931284;28;20454;-79
2024/03/06 02:14:38;;;;;;;13.00;9.00;;;10.00;99.90;;;;;;4920239;28;20550;-79
2024/03/06 02:17:04;;;;;;;9.77;8.33;;;9.90;99.90;;;;;;4923413;28;20435;-79
2024/03/06 02:19:40;;;;;;;11.63;8.53;;;9.80;99.90;;;;;;4941349;29;20443;-78
2024/03/06 02:22:10;;;;;;;10.07;8.37;;;9.90;99.90;;;;;;4914333;28;20442;-79
2024/03/06 02:24:43;;;;;;;9.37;7.93;;;10.00;99.90;;;;;;4956682;28;20877;-78
2024/03/06 02:27:08;;;;;;;9.87;8.30;;;9.90;99.90;;;;;;4958068;28;20753;-78
2024/03/06 02:29:35;;;;;;;9.83;7.80;;;9.90;99.90;;;;;;4950015;28;20434;-78
2024/03/06 02:32:04;;;;;;;12.03;9.00;;;9.80;99.90;;;;;;4937243;28;20463;-79
2024/03/06 02:34:30;;;;;;;12.03;8.33;;;10.00;99.90;;;;;;4909635;28;20505;-78
2024/03/06 02:36:58;;;;;;;10.63;8.07;;;9.90;99.90;;;;;;4926135;28;20458;-79
2024/03/06 02:39:26;;;;;;;10.90;8.47;;;9.90;99.90;;;;;;4938537;29;20440;-79
2024/03/06 02:41:52;;;;;;;10.47;8.53;;;9.90;99.90;;;;;;4961525;28;20427;-79
2024/03/06 02:44:18;;;;;;;11.47;8.33;;;9.80;99.90;;;;;;4923907;28;20566;-79
2024/03/06 02:46:48;;;;;;;11.93;8.33;;;9.90;99.90;;;;;;4928415;28;20427;-79
2024/03/06 02:49:15;;;;;;;10.93;8.47;;;9.80;99.90;;;;;;4923796;28;20944;-79
2024/03/06 02:51:41;;;;;;;11.63;8.80;;;9.80;99.90;;;;;;4940859;28;20474;-79
2024/03/06 02:54:07;;;;;;;9.23;8.30;;;9.80;99.90;;;;;;4962198;28;20474;-78
2024/03/06 02:56:33;;;;;;;10.70;8.30;;;9.80;99.90;;;;;;4924866;29;20451;-78
2024/03/06 02:59:02;;;;;;;10.83;8.50;;;9.80;99.90;;;;;;4933559;29;20463;-79
2024/03/06 03:01:29;;;;;;;12.83;7.60;;;9.80;99.90;;;;;;4970395;28;20458;-79
2024/03/06 03:03:55;;;;;;;13.10;8.73;;;9.80;99.90;;;;;;4945581;28;20446;-78
2024/03/06 03:06:23;;;;;;;10.63;8.33;;;9.90;99.90;;;;;;4931948;28;20454;-78
2024/03/06 03:08:49;;;;;;;11.80;8.87;;;9.80;99.90;;;;;;4938638;29;20448;-78
2024/03/06 03:11:16;;;;;;;10.23;8.63;;;9.80;99.90;;;;;;4941318;28;20455;-78
2024/03/06 03:13:42;;;;;;;10.70;9.00;;;9.80;99.90;;;;;;4935965;29;20784;-78
2024/03/06 03:16:20;;;;;;;11.90;8.17;;;9.80;99.90;;;;;;4958545;28;20441;-78
2024/03/06 03:18:48;;;;;;;10.03;8.37;;;9.80;99.90;;;;;;4956909;28;20438;-77
2024/03/06 03:21:17;;;;;;;12.50;9.40;;;9.70;99.90;;;;;;4940021;28;20423;-78
2024/03/06 03:23:45;;;;;;;11.07;8.90;;;9.70;99.90;;;;;;4961920;28;20495;-78
2024/03/06 03:26:11;;;;;;;11.50;9.23;;;9.70;99.90;;;;;;4956077;28;20486;-79
2024/03/06 03:28:42;;;;;;;11.43;9.60;;;9.70;99.90;;;;;;4941451;29;20513;-79
2024/03/06 03:31:09;;;;;;;12.43;9.10;;;9.70;99.90;;;;;;4944667;28;20744;-78
2024/03/06 03:33:38;;;;;;;12.70;9.70;;;9.70;99.90;;;;;;4913833;29;20446;-79
2024/03/06 03:36:08;;;;;;;12.27;9.20;;;9.70;99.90;;;;;;4925883;28;20493;-78
2024/03/06 03:38:43;;;;;;;10.73;9.40;;;9.70;99.90;;;;;;4944819;28;20447;-79
2024/03/06 03:41:10;;;;;;;10.57;8.60;;;9.60;99.90;;;;;;4923810;28;20486;-78
2024/03/06 03:43:41;;;;;;;12.53;8.80;;;9.60;99.90;;;;;;4945235;28;20990;-79
2024/03/06 03:46:13;;;;;;;12.37;9.03;;;9.60;99.90;;;;;;4926522;28;20458;-78
2024/03/06 03:48:41;;;;;;;10.50;8.80;;;9.60;99.90;;;;;;4937964;29;20439;-78
2024/03/06 03:51:07;;;;;;;13.20;9.77;;;9.60;99.90;;;;;;4909827;28;20887;-78
2024/03/06 03:53:35;;;;;;;11.10;9.77;;;9.60;99.90;;;;;;4939882;29;20470;-78
2024/03/06 03:56:03;;;;;;;11.83;10.20;;;9.60;99.90;;;;;;4939360;28;20238;-79
2024/03/06 03:58:29;;;;;;;11.77;9.47;;;9.60;99.90;;;;;;4954863;29;20791;-78
2024/03/06 04:00:57;;;;;;;12.37;9.77;;;9.60;99.90;;;;;;4938464;28;20474;-78
2024/03/06 04:03:23;;;;;;;10.67;8.37;;;9.60;99.90;;;;;;4923458;29;20474;-79
2024/03/06 04:05:49;;;;;;;14.17;10.70;;;9.60;99.90;;;;;;4925597;29;20936;-79
2024/03/06 04:08:18;;;;;;;11.97;9.37;;;9.60;99.90;;;;;;4957600;28;20435;-77
2024/03/06 04:14:15;;;;;;;13.60;10.17;;;9.60;99.90;;;;;;4938850;28;20482;-77
2024/03/06 04:16:43;;;;;;;10.43;9.33;;;9.50;99.90;;;;;;4955082;28;20435;-78
2024/03/06 04:19:11;;;;;;;11.87;9.87;;;9.50;99.90;;;;;;4921627;28;20431;-78
2024/03/06 04:21:43;;;;;;;15.93;11.40;;;9.50;99.90;;;;;;4926371;28;20435;-79
2024/03/06 04:24:09;;;;;;;12.70;9.57;;;9.50;99.90;;;;;;4923584;28;20469;-78
2024/03/06 04:26:35;;;;;;;14.03;10.20;;;9.50;99.90;;;;;;4926784;29;20502;-78
2024/03/06 04:29:02;;;;;;;12.17;9.50;;;9.40;99.90;;;;;;4948342;28;20514;-78
2024/03/06 04:31:31;;;;;;;14.33;10.23;;;9.30;99.90;;;;;;4926120;28;20454;-77
2024/03/06 04:33:57;;;;;;;13.37;9.70;;;9.50;99.90;;;;;;4938002;29;20431;-78
2024/03/06 04:36:25;;;;;;;12.83;10.20;;;9.40;99.90;;;;;;4912141;28;20427;-78
2024/03/06 04:38:51;;;;;;;13.37;10.67;;;9.40;99.90;;;;;;4923483;28;20197;-78
2024/03/06 04:41:19;;;;;;;13.93;9.87;;;9.40;99.90;;;;;;4941157;28;20486;-77
2024/03/06 04:43:45;;;;;;;14.20;10.63;;;9.40;99.90;;;;;;4929812;28;20438;-78
2024/03/06 04:46:14;;;;;;;14.70;10.90;;;9.40;99.90;;;;;;4940634;28;20434;-77
2024/03/06 04:48:40;;;;;;;15.30;9.97;;;9.40;99.90;;;;;;4929342;28;20434;-78
2024/03/06 04:51:06;;;;;;;13.83;10.07;;;9.40;99.90;;;;;;4954817;28;20455;-79
2024/03/06 04:53:34;;;;;;;12.30;10.07;;;9.40;99.90;;;;;;4954558;28;20439;-79
2024/03/06 04:56:00;;;;;;;15.00;10.77;;;9.40;99.90;;;;;;4958561;28;20478;-77
2024/03/06 04:58:28;;;;;;;12.30;10.50;;;9.40;99.90;;;;;;4957832;28;20462;-78
2024/03/06 05:00:58;;;;;;;13.00;10.63;;;9.30;99.90;;;;;;4930203;28;20422;-78
2024/03/06 05:03:27;;;;;;;11.90;9.97;;;9.40;99.90;;;;;;4938162;29;20500;-78
2024/03/06 05:05:56;;;;;;;13.17;10.37;;;9.30;99.90;;;;;;4937942;28;20423;-78
2024/03/06 05:08:26;;;;;;;14.63;10.10;;;9.30;99.90;;;;;;4922614;28;20979;-78
2024/03/06 05:10:52;;;;;;;14.50;11.00;;;9.30;99.90;;;;;;4926057;28;20491;-78
2024/03/06 05:13:20;;;;;;;13.23;10.53;;;9.30;99.90;;;;;;4936940;28;20434;-78
2024/03/06 05:15:46;;;;;;;13.67;9.93;;;9.30;99.90;;;;;;4920801;28;20486;-77
2024/03/06 05:18:11;;;;;;;15.13;11.23;;;9.30;99.90;;;;;;4923062;28;20671;-78
2024/03/06 05:20:37;;;;;;;15.67;10.97;;;9.30;99.90;;;;;;4928593;28;20442;-79
2024/03/06 05:23:06;;;;;;;14.00;10.53;;;9.30;99.90;;;;;;4942766;28;20216;-78
2024/03/06 05:25:32;;;;;;;10.70;9.47;;;9.30;99.90;;;;;;4925207;29;20474;-78
2024/03/06 05:27:58;;;;;;;12.60;10.80;;;9.20;99.90;;;;;;4955518;28;20870;-78
2024/03/06 05:30:28;;;;;;;12.20;9.50;;;9.30;99.90;;;;;;4923595;28;20471;-79
2024/03/06 05:32:54;;;;;;;14.20;10.97;;;9.30;99.90;;;;;;4939224;28;20423;-79
2024/03/06 05:35:23;;;;;;;11.47;10.20;;;9.20;99.90;;;;;;4944326;28;20470;-79
2024/03/06 05:37:51;;;;;;;13.27;10.03;;;9.20;99.90;;;;;;4931646;28;20458;-79
2024/03/06 05:40:19;;;;;;;16.33;10.97;;;9.20;99.90;;;;;;4926110;28;20439;-79
2024/03/06 05:42:45;;;;;;;15.50;10.30;;;9.20;99.90;;;;;;4906333;29;20538;-79
2024/03/06 05:45:12;;;;;;;13.93;9.93;;;9.20;99.90;;;;;;4939054;28;20890;-79
2024/03/06 05:47:38;;;;;;;13.03;10.33;;;9.20;99.90;;;;;;4960416;28;20439;-79
2024/03/06 05:50:10;;;;;;;14.60;10.53;;;9.20;99.90;;;;;;4939692;28;20488;-79
2024/03/06 05:52:41;;;;;;;14.20;10.77;;;9.20;99.90;;;;;;4939654;29;20485;-78
2024/03/06 05:55:07;;;;;;;11.67;9.37;;;9.20;99.90;;;;;;4925672;28;21359;-79
2024/03/06 05:57:33;;;;;;;12.80;10.37;;;9.20;99.90;;;;;;4939493;28;20470;-79
2024/03/06 06:00:04;;;;;;;13.97;10.13;;;9.20;99.90;;;;;;4913413;28;20958;-80
2024/03/06 06:02:39;;;;;;;15.50;11.07;;;9.10;99.90;;;;;;4933144;28;20454;-79
2024/03/06 06:05:07;;;;;;;14.90;10.30;;;9.10;99.90;;;;;;4946505;28;20436;-81
2024/03/06 06:07:38;;;;;;;21.33;10.83;;;9.10;99.90;;;;;;4944563;28;20435;-79
2024/03/06 06:10:09;;;;;;;12.50;10.63;;;9.10;99.90;;;;;;4910556;28;20444;-79
2024/03/06 06:12:41;;;;;;;16.70;10.43;;;9.10;99.90;;;;;;4913119;29;20788;-79
2024/03/06 06:15:07;;;;;;;14.03;10.07;;;9.10;99.90;;;;;;4955197;28;20467;-80
2024/03/06 06:17:38;;;;;;;15.60;11.03;;;9.10;99.90;;;;;;4940769;29;20547;-79
2024/03/06 06:20:09;;;;;;;12.70;10.20;;;9.10;99.90;;;;;;4944458;28;20434;-80
2024/03/06 06:22:38;;;;;;;12.13;9.93;;;9.10;99.90;;;;;;4935494;28;20444;-79
2024/03/06 06:25:05;;;;;;;15.80;11.03;;;9.10;99.90;;;;;;4937368;28;20732;-80
2024/03/06 06:27:31;;;;;;;13.00;9.77;;;9.00;99.90;;;;;;4939078;28;20904;-79
2024/03/06 06:30:01;;;;;;;13.57;10.57;;;9.10;99.90;;;;;;4927090;28;20461;-79
2024/03/06 06:32:27;;;;;;;16.17;10.70;;;9.00;99.90;;;;;;4944410;28;20943;-79
2024/03/06 06:34:53;;;;;;;12.10;9.60;;;9.00;99.90;;;;;;4949647;28;21130;-79
2024/03/06 06:37:19;;;;;;;15.47;10.00;;;9.00;99.90;;;;;;4941519;28;20926;-78
2024/03/06 06:39:48;;;;;;;15.63;10.90;;;9.00;99.90;;;;;;4911370;28;20219;-79
2024/03/06 06:42:14;;;;;;;14.40;10.17;;;9.00;99.90;;;;;;4925763;29;20777;-79
2024/03/06 06:44:41;;;;;;;13.10;9.30;;;9.00;99.90;;;;;;4942014;29;20436;-79
2024/03/06 06:47:07;;;;;;;12.67;10.03;;;9.00;99.90;;;;;;4943489;28;20439;-79
2024/03/06 06:49:33;;;;;;;13.07;9.93;;;9.00;99.90;;;;;;4925895;28;20462;-80
2024/03/06 06:52:00;;;;;;;13.57;10.57;;;9.00;99.90;;;;;;4959565;28;20419;-78
2024/03/06 06:54:28;;;;;;;15.10;11.10;;;9.00;99.90;;;;;;4956843;28;21327;-80
2024/03/06 06:56:54;;;;;;;15.17;10.60;;;9.00;99.90;;;;;;4926953;29;20506;-79
2024/03/06 06:59:23;;;;;;;12.97;10.57;;;9.00;99.90;;;;;;4930836;28;20621;-79
2024/03/06 07:01:51;;;;;;;12.87;10.30;;;9.00;99.90;;;;;;4930208;28;20447;-80
2024/03/06 07:04:20;;;;;;;13.50;10.10;;;9.00;99.90;;;;;;4931491;28;20566;-79
2024/03/06 07:06:57;;;;;;;14.90;10.63;;;8.90;99.90;;;;;;4967693;28;20439;-80
2024/03/06 07:09:28;;;;;;;15.70;10.70;;;8.90;99.90;;;;;;4951628;29;20640;-79
2024/03/06 07:11:57;;;;;;;14.90;10.53;;;8.90;99.90;;;;;;4920040;29;20451;-79
2024/03/06 07:14:28;;;;;;;16.40;9.90;;;8.90;99.90;;;;;;4942032;28;20483;-80
2024/03/06 07:16:58;;;;;;;13.87;10.30;;;8.90;99.90;;;;;;4922120;28;20971;-80
2024/03/06 07:19:24;;;;;;;13.33;10.13;;;8.90;99.90;;;;;;4922626;29;20455;-79
2024/03/06 07:21:53;;;;;;;15.40;9.90;;;8.90;99.90;;;;;;4921551;29;20499;-80
2024/03/06 07:24:21;;;;;;;13.77;10.10;;;8.90;99.90;;;;;;4925051;28;20453;-79
2024/03/06 07:26:49;;;;;;;12.27;9.80;;;8.90;99.90;;;;;;4923114;29;20440;-79
2024/03/06 07:29:15;;;;;;;15.00;10.40;;;8.90;99.90;;;;;;4939683;28;20450;-79
2024/03/06 07:31:47;;;;;;;13.90;9.37;;;8.90;99.90;;;;;;4943027;28;20779;-79
2024/03/06 07:34:28;;;;;;;13.73;10.33;;;8.90;99.90;;;;;;4956324;28;20954;-79
2024/03/06 07:36:59;;;;;;;15.93;10.60;;;8.90;99.90;;;;;;4939546;28;20432;-78
2024/03/06 07:39:25;;;;;;;13.50;9.80;;;8.90;99.90;;;;;;4952862;28;20433;-80
2024/03/06 07:41:54;;;;;;;15.60;9.60;;;8.90;99.90;;;;;;4955747;28;20931;-79
2024/03/06 07:44:25;;;;;;;15.60;10.87;;;8.90;99.90;;;;;;4940185;29;20498;-80
2024/03/06 07:46:53;;;;;;;17.00;11.30;;;8.90;99.90;;;;;;4924917;28;20482;-79
2024/03/06 07:53:16;;;;;;;14.23;10.10;;;8.90;99.90;;;;;;4935783;28;20849;-78
2024/03/06 07:55:44;;;;;;;15.90;11.17;;;8.80;99.90;;;;;;4939468;28;20487;-78
2024/03/06 07:58:11;;;;;;;13.37;9.97;;;8.80;99.90;;;;;;4936254;29;20447;-78
2024/03/06 08:00:39;;;;;;;14.57;9.83;;;8.80;99.90;;;;;;4917476;29;20447;-79
2024/03/06 08:03:07;;;;;;;16.03;10.60;;;8.90;99.90;;;;;;4925899;28;20478;-79
2024/03/06 08:05:33;;;;;;;15.17;11.07;;;8.90;99.90;;;;;;4920950;28;20453;-81
2024/03/06 08:07:59;;;;;;;15.93;11.33;;;8.80;99.90;;;;;;4938114;29;20223;-80
2024/03/06 08:10:25;;;;;;;11.87;9.27;;;8.80;99.90;;;;;;4921454;29;20474;-79
2024/03/06 08:12:54;;;;;;;16.50;10.63;;;8.90;99.90;;;;;;4921495;28;20927;-80
2024/03/06 08:15:22;;;;;;;13.67;9.90;;;8.90;99.90;;;;;;4934403;28;20550;-80
2024/03/06 08:17:49;;;;;;;15.00;10.40;;;8.90;99.90;;;;;;4918050;28;20539;-79
2024/03/06 08:20:15;;;;;;;15.97;9.97;;;8.90;99.90;;;;;;4938150;28;20534;-79
2024/03/06 08:22:42;;;;;;;11.43;10.23;;;8.90;99.90;;;;;;4936944;29;20478;-78
2024/03/06 08:25:12;;;;;;;14.50;10.47;;;8.90;99.90;;;;;;4916760;28;20521;-80
2024/03/06 08:27:44;;;;;;;14.23;9.97;;;8.90;99.90;;;;;;4939089;28;20422;-80
2024/03/06 08:30:10;;;;;;;15.23;10.23;;;8.90;99.90;;;;;;4931574;29;21161;-80
2024/03/06 08:32:39;;;;;;;12.30;9.40;;;8.90;99.90;;;;;;4934279;28;20439;-80
2024/03/06 08:35:11;;;;;;;15.87;10.80;;;8.90;99.90;;;;;;4920483;28;20488;-79
2024/03/06 08:37:41;;;;;;;13.67;10.70;;;8.90;99.90;;;;;;4908313;28;20459;-79
2024/03/06 08:40:14;;;;;;;17.23;10.53;;;8.90;99.90;;;;;;4930965;28;20759;-79
2024/03/06 08:42:47;;;;;;;17.10;11.97;;;8.90;99.90;;;;;;4939774;28;20446;-79
2024/03/06 08:45:16;;;;;;;15.13;10.30;;;8.90;99.90;;;;;;4936531;29;20466;-78
2024/03/06 08:47:48;;;;;;;16.93;11.83;;;8.90;99.90;;;;;;4939842;28;20430;-79
2024/03/06 08:50:16;;;;;;;18.23;13.20;;;8.90;99.90;;;;;;4923637;28;20439;-79
2024/03/06 08:52:45;;;;;;;19.20;11.63;;;9.00;99.90;;;;;;4927195;28;20500;-79
2024/03/06 08:55:14;;;;;;;17.40;11.80;;;9.00;99.90;;;;;;4926646;28;21049;-79
2024/03/06 08:57:43;;;;;;;18.63;12.37;;;8.90;99.90;;;;;;4925928;28;20488;-79
2024/03/06 09:00:10;;;;;;;17.33;11.80;;;9.00;99.90;;;;;;4921046;29;20451;-79
2024/03/06 09:02:44;;;;;;;16.67;11.80;;;8.90;99.90;;;;;;4960645;28;20419;-80
2024/03/06 09:05:13;;;;;;;18.73;12.30;;;9.00;99.90;;;;;;4932643;28;20462;-79
2024/03/06 09:07:42;;;;;;;19.03;11.50;;;9.00;99.90;;;;;;4942111;28;20434;-81
2024/03/06 09:10:10;;;;;;;18.93;11.83;;;9.00;99.90;;;;;;4927741;28;20808;-79
2024/03/06 09:12:38;;;;;;;20.33;12.40;;;9.00;99.90;;;;;;4937165;28;20932;-79
2024/03/06 09:15:09;;;;;;;21.73;12.93;;;9.00;99.90;;;;;;4958194;28;20474;-79
2024/03/06 09:17:35;;;;;;;19.57;12.90;;;9.00;99.90;;;;;;4940121;29;20485;-80
2024/03/06 09:20:09;;;;;;;22.10;12.80;;;9.00;99.90;;;;;;4962453;28;20446;-79
2024/03/06 09:22:41;;;;;;;20.70;12.63;;;9.00;99.90;;;;;;4929124;28;20442;-79
2024/03/06 09:25:14;;;;;;;18.30;13.70;;;9.00;99.90;;;;;;4927026;28;20435;-79
2024/03/06 09:27:40;;;;;;;17.70;11.87;;;9.00;99.90;;;;;;4887507;29;20474;-79
2024/03/06 09:30:06;;;;;;;23.07;15.23;;;9.00;99.90;;;;;;4916922;29;20477;-79
2024/03/06 09:32:34;;;;;;;22.80;13.07;;;9.00;99.90;;;;;;4885668;29;20463;-79
2024/03/06 09:35:00;;;;;;;20.30;13.50;;;9.10;99.90;;;;;;4904601;29;20630;-79
2024/03/06 09:37:28;;;;;;;18.30;13.07;;;9.10;99.90;;;;;;4899721;29;20910;-79
2024/03/06 09:39:56;;;;;;;19.70;13.30;;;9.10;99.90;;;;;;4890967;29;20927;-79
2024/03/06 09:42:23;;;;;;;19.73;12.87;;;9.10;99.90;;;;;;4900879;29;20455;-79
2024/03/06 09:44:49;;;;;;;22.17;14.90;;;9.10;99.90;;;;;;4881390;29;20605;-79
2024/03/06 09:47:25;;;;;;;20.10;14.90;;;9.10;99.90;;;;;;4912615;29;20461;-79
2024/03/06 09:49:53;;;;;;;19.10;12.80;;;9.10;99.90;;;;;;4899182;29;20608;-78
2024/03/06 09:52:19;;;;;;;21.10;13.73;;;9.10;99.90;;;;;;4897062;29;20453;-79
2024/03/06 09:54:47;;;;;;;23.87;14.53;;;9.10;99.90;;;;;;4871892;29;20506;-78
2024/03/06 09:57:15;;;;;;;26.80;15.60;;;9.10;99.90;;;;;;4914129;29;20449;-79
2024/03/06 09:59:43;;;;;;;23.83;14.77;;;9.10;99.90;;;;;;4933002;29;20443;-80
2024/03/06 10:02:31;;;;;;;23.03;15.20;;;9.10;99.90;;;;;;4940832;28;20482;-79
2024/03/06 10:05:01;;;;;;;22.87;13.37;;;9.20;99.90;;;;;;4940540;28;20476;-78
2024/03/06 10:07:29;;;;;;;20.43;13.20;;;9.10;99.90;;;;;;4943341;28;20457;-79
2024/03/06 10:09:58;;;;;;;22.80;15.23;;;9.20;99.90;;;;;;4955575;28;21161;-79
2024/03/06 10:12:24;;;;;;;24.87;14.97;;;9.20;99.90;;;;;;4918162;28;20620;-78
2024/03/06 10:14:56;;;;;;;23.30;13.90;;;9.20;99.90;;;;;;4936432;29;20466;-79
2024/03/06 10:17:26;;;;;;;21.70;14.00;;;9.20;99.90;;;;;;4926644;29;20470;-79
2024/03/06 10:19:52;;;;;;;21.00;13.60;;;9.20;99.90;;;;;;4955748;28;21036;-80
2024/03/06 10:22:24;;;;;;;20.97;13.43;;;9.20;99.90;;;;;;4922917;28;20447;-78
2024/03/06 10:24:55;;;;;;;18.27;13.50;;;9.20;99.90;;;;;;4934278;29;20526;-78
2024/03/06 10:27:27;;;;;;;23.70;15.23;;;9.20;99.90;;;;;;4940479;28;20445;-79
2024/03/06 10:30:10;;;;;;;22.53;14.47;;;9.20;99.90;;;;;;4939380;28;20469;-80
2024/03/06 10:32:37;;;;;;;24.30;14.90;;;9.30;99.90;;;;;;4923380;28;20435;-79
2024/03/06 10:35:06;;;;;;;26.43;16.07;;;9.30;99.90;;;;;;4944496;28;20835;-79
2024/03/06 10:37:35;;;;;;;24.87;15.00;;;9.30;99.90;;;;;;4961435;28;20526;-79
2024/03/06 10:40:05;;;;;;;22.47;13.93;;;9.30;99.90;;;;;;4923516;28;20427;-79
2024/03/06 10:42:36;;;;;;;23.07;14.73;;;9.30;99.90;;;;;;4956177;28;20431;-78
2024/03/06 10:45:09;;;;;;;23.23;15.60;;;9.30;99.90;;;;;;4923694;28;20472;-81
2024/03/06 10:47:37;;;;;;;29.73;16.03;;;9.30;99.90;;;;;;4939974;29;20427;-80
2024/03/06 10:50:04;;;;;;;20.83;14.07;;;9.30;99.90;;;;;;4938205;28;20435;-80
2024/03/06 10:52:36;;;;;;;22.10;14.17;;;9.40;99.90;;;;;;4928791;29;20455;-78
2024/03/06 10:55:06;;;;;;;23.43;15.03;;;9.40;99.90;;;;;;4919307;28;20816;-81
2024/03/06 10:57:33;;;;;;;23.93;16.50;;;9.40;99.90;;;;;;4912560;29;20785;-80
2024/03/06 11:00:00;;;;;;;23.97;15.80;;;9.40;99.90;;;;;;4926851;28;20478;-81
2024/03/06 11:02:30;;;;;;;21.43;14.90;;;9.40;99.90;;;;;;4940533;28;20546;-78
2024/03/06 11:04:58;;;;;;;20.30;14.83;;;9.50;99.90;;;;;;4924120;28;20466;-81
2024/03/06 11:07:27;;;;;;;23.47;15.80;;;9.50;99.90;;;;;;4922398;29;20971;-81
2024/03/06 11:09:53;;;;;;;25.63;14.20;;;9.50;99.90;;;;;;4921992;28;20447;-81
2024/03/06 11:12:39;;;;;;;25.37;14.90;;;9.50;99.90;;;;;;4952634;28;20466;-80
2024/03/06 11:15:10;;;;;;;24.33;15.17;;;9.60;99.90;;;;;;4918146;29;20601;-81
2024/03/06 11:17:38;;;;;;;22.53;16.27;;;9.60;99.90;;;;;;4954668;29;20547;-80
2024/03/06 11:20:06;;;;;;;22.10;14.90;;;9.60;99.90;;;;;;4927858;28;21166;-80
2024/03/06 11:22:56;;;;;;;26.33;16.07;;;9.60;99.90;;;;;;4921957;29;20925;-80
2024/03/06 11:25:50;;;;;;;22.47;15.07;;;9.70;99.90;;;;;;4955568;28;20474;-79
2024/03/06 11:28:27;;;;;;;25.00;15.87;;;9.70;99.90;;;;;;4936793;28;20514;-79
2024/03/06 11:31:02;;;;;;;29.00;17.00;;;9.70;99.90;;;;;;4920699;29;20552;-81
2024/03/06 11:33:42;;;;;;;23.50;15.70;;;9.70;99.90;;;;;;4932384;28;20577;-81
2024/03/06 11:36:32;;;;;;;26.40;16.60;;;9.70;99.90;;;;;;4946486;28;20558;-79
2024/03/06 11:39:06;;;;;;;24.77;16.67;;;9.70;99.90;;;;;;4940408;28;21009;-80
2024/03/06 11:41:52;;;;;;;21.47;14.50;;;9.80;99.90;;;;;;4934193;28;20451;-80
2024/03/06 11:44:23;;;;;;;21.07;14.40;;;9.80;99.90;;;;;;4920686;28;20447;-80
2024/03/06 11:46:59;;;;;;;27.13;16.83;;;9.80;99.90;;;;;;4923479;29;20558;-80
2024/03/06 11:49:28;;;;;;;23.90;15.57;;;9.80;99.90;;;;;;4936463;28;20434;-80
2024/03/06 11:52:02;;;;;;;22.90;15.03;;;9.80;99.90;;;;;;4919248;28;20439;-80
2024/03/06 11:54:34;;;;;;;23.03;16.07;;;9.90;99.90;;;;;;4955813;28;20486;-80
2024/03/06 11:57:02;;;;;;;25.80;15.80;;;9.90;99.90;;;;;;4927157;28;20538;-80
2024/03/06 11:59:35;;;;;;;20.13;15.17;;;9.90;99.90;;;;;;4937140;29;20431;-81
2024/03/06 12:02:06;;;;;;;27.13;16.00;;;9.90;99.90;;;;;;4927624;28;20442;-80
2024/03/06 12:04:37;;;;;;;21.57;15.77;;;10.00;99.90;;;;;;4917959;29;20450;-80
2024/03/06 12:07:08;;;;;;;20.00;13.77;;;10.00;99.90;;;;;;4933678;28;20522;-79
2024/03/06 12:09:39;;;;;;;21.57;15.67;;;10.00;99.90;;;;;;4925160;28;20525;-80
2024/03/06 12:12:06;;;;;;;20.83;14.07;;;10.00;99.90;;;;;;4938883;28;20435;-80
2024/03/06 12:14:35;;;;;;;19.20;14.83;;;10.00;99.90;;;;;;4934738;29;21612;-80
2024/03/06 12:17:05;;;;;;;25.90;15.50;;;10.00;99.90;;;;;;4905893;28;20455;-81
2024/03/06 12:19:36;;;;;;;20.20;13.73;;;10.00;99.90;;;;;;4926464;28;20564;-80
2024/03/06 12:22:04;;;;;;;21.93;14.37;;;10.10;99.90;;;;;;4922463;28;20453;-81
2024/03/06 12:24:33;;;;;;;24.40;15.40;;;10.10;99.90;;;;;;4911340;28;21051;-80
2024/03/06 12:27:06;;;;;;;20.73;14.33;;;10.10;99.90;;;;;;4953860;28;20478;-80
2024/03/06 12:29:38;;;;;;;21.17;14.93;;;10.10;99.90;;;;;;4946687;28;20475;-80
2024/03/06 12:32:04;;;;;;;18.80;13.50;;;10.10;99.90;;;;;;4943448;28;21113;-80
2024/03/06 12:34:33;;;;;;;21.70;15.07;;;10.10;99.90;;;;;;4941341;28;20461;-80
2024/03/06 12:37:10;;;;;;;19.27;14.13;;;10.10;99.90;;;;;;4924044;28;20439;-80
2024/03/06 12:39:38;;;;;;;21.97;14.00;;;10.20;99.90;;;;;;4926310;28;20434;-80
2024/03/06 12:42:06;;;;;;;20.03;14.37;;;10.20;99.90;;;;;;4939821;29;20428;-79
2024/03/06 12:44:32;;;;;;;24.33;15.73;;;10.20;99.90;;;;;;4959044;28;20497;-80
2024/03/06 12:47:00;;;;;;;23.43;15.67;;;10.20;99.90;;;;;;4923764;28;20447;-81
2024/03/06 12:49:29;;;;;;;21.37;14.53;;;10.20;99.90;;;;;;4925501;29;20447;-80
2024/03/06 12:51:54;;;;;;;26.40;16.60;;;10.20;99.90;;;;;;4940872;28;20538;-81
2024/03/06 12:54:25;;;;;;;29.50;18.57;;;10.20;99.90;;;;;;4935045;28;21068;-81
2024/03/06 12:56:53;;;;;;;28.23;16.30;;;10.20;99.90;;;;;;4929619;28;20490;-80